Aviation Digital Data Service (ADDS)

Output produced by METARs form (1402 UTC 20 January 2017)
found at http://www.aviationweather.gov/adds/metars/
 
KSBY 201354Z 08003KT 3SM BR BKN002 03/03 A3000 RMK AO2 SLP160 T00280028
KSBY 201301Z 2013/2112 VRB03KT 2SM MIFG BKN002 
     TEMPO 2013/2014 1/4SM FG VV002 
     FM201400 15005KT P6SM VCSH OVC070 
     FM201800 15007KT 6SM -RA OVC040 
     FM202000 14006KT 6SM -RA OVC030 
     FM202300 14006KT P6SM OVC025 
     FM210200 VRB03KT 4SM -DZ BR OVC020 
     FM210700 00000KT 2SM -DZ BR BKN005